createdAt,value
2019-04-27T00:01:45.253Z,22.20
2019-04-27T00:04:33.989Z,21.33
2019-04-27T00:07:21.207Z,19.30
2019-04-27T00:09:55.262Z,17.20
2019-04-27T00:12:26.369Z,18.07
2019-04-27T00:14:56.038Z,19.47
2019-04-27T00:17:50.371Z,20.80
2019-04-27T00:20:36.399Z,19.63
2019-04-27T00:23:07.998Z,22.33
2019-04-27T00:25:37.036Z,19.23
2019-04-27T00:28:06.192Z,19.20
2019-04-27T00:30:35.880Z,17.23
2019-04-27T00:33:05.335Z,18.17
2019-04-27T00:35:50.123Z,19.97
2019-04-27T00:38:26.585Z,17.97
2019-04-27T00:41:08.228Z,16.60
2019-04-27T00:43:37.151Z,17.27
2019-04-27T00:46:06.207Z,17.90
2019-04-27T00:48:35.224Z,19.80
2019-04-27T00:51:04.400Z,17.67
2019-04-27T00:53:33.566Z,20.67
2019-04-27T00:56:30.533Z,28.07
2019-04-27T00:59:27.591Z,18.67
2019-04-27T01:02:23.216Z,21.60
2019-04-27T01:04:52.991Z,18.20
2019-04-27T01:07:24.948Z,18.13
2019-04-27T01:09:53.665Z,16.43
2019-04-27T01:12:23.697Z,16.10
2019-04-27T01:14:53.518Z,19.03
2019-04-27T01:17:22.635Z,19.30
2019-04-27T01:19:51.540Z,16.17
2019-04-27T01:22:20.523Z,19.80
2019-04-27T01:24:55.672Z,18.17
2019-04-27T01:27:52.280Z,16.60
2019-04-27T01:30:30.964Z,15.53
2019-04-27T01:32:59.926Z,17.50
2019-04-27T01:35:28.948Z,16.70
2019-04-27T01:37:58.922Z,16.43
2019-04-27T01:40:29.518Z,18.13
2019-04-27T01:42:58.965Z,17.17
2019-04-27T01:45:29.019Z,18.43
2019-04-27T01:47:59.614Z,15.40
2019-04-27T01:50:28.990Z,15.43
2019-04-27T01:52:58.748Z,19.37
2019-04-27T01:55:29.737Z,18.63
2019-04-27T01:57:58.663Z,18.30
2019-04-27T02:00:45.067Z,18.53
2019-04-27T02:03:15.806Z,16.97
2019-04-27T02:05:52.521Z,20.60
2019-04-27T02:08:21.618Z,13.50
2019-04-27T02:10:50.940Z,14.83
2019-04-27T02:13:20.218Z,17.67
2019-04-27T02:15:49.367Z,18.07
2019-04-27T02:18:19.409Z,15.00
2019-04-27T02:20:49.241Z,17.67
2019-04-27T02:23:19.215Z,20.50
2019-04-27T02:25:49.686Z,19.90
2019-04-27T02:28:40.728Z,17.80
2019-04-27T02:31:34.776Z,15.40
2019-04-27T02:34:10.643Z,23.23
2019-04-27T02:36:39.861Z,18.13
2019-04-27T02:39:09.597Z,18.70
2019-04-27T02:41:40.030Z,19.47
2019-04-27T02:44:14.704Z,27.90
2019-04-27T02:46:43.904Z,16.40
2019-04-27T02:49:12.923Z,17.33
2019-04-27T02:51:59.512Z,18.40
2019-04-27T02:54:29.820Z,25.13
2019-04-27T02:56:59.516Z,23.40
2019-04-27T02:59:30.272Z,22.13
2019-04-27T03:02:04.975Z,18.90
2019-04-27T03:04:33.931Z,21.50
2019-04-27T03:07:03.020Z,20.83
2019-04-27T03:09:32.071Z,23.87
2019-04-27T03:12:02.884Z,15.80
2019-04-27T03:15:02.930Z,19.63
2019-04-27T03:17:49.732Z,18.80
2019-04-27T03:20:31.101Z,46.33
2019-04-27T03:23:02.962Z,19.17
2019-04-27T03:26:06.243Z,25.13
2019-04-27T03:28:35.365Z,25.30
2019-04-27T03:31:04.581Z,18.03
2019-04-27T03:33:33.669Z,19.73
2019-04-27T03:36:03.192Z,20.07
2019-04-27T03:38:32.716Z,19.57
2019-04-27T03:41:01.789Z,20.47
2019-04-27T03:43:31.076Z,22.60
2019-04-27T03:46:00.690Z,20.00
2019-04-27T03:48:29.869Z,21.67
2019-04-27T03:51:20.704Z,20.33
2019-04-27T03:54:11.835Z,20.03
2019-04-27T03:56:46.750Z,24.23
2019-04-27T03:59:26.422Z,23.93
2019-04-27T04:01:55.542Z,21.03
2019-04-27T04:04:24.668Z,22.40
2019-04-27T04:06:53.765Z,19.50
2019-04-27T04:09:40.173Z,22.97
2019-04-27T04:12:15.895Z,27.23
2019-04-27T04:14:44.969Z,25.80
2019-04-27T04:17:15.910Z,26.17
2019-04-27T04:19:54.487Z,28.90
2019-04-27T04:22:15.605Z,34.37
2019-04-27T04:24:44.591Z,25.70
2019-04-27T04:27:13.489Z,21.83
2019-04-27T04:29:42.508Z,20.00
2019-04-27T04:32:11.488Z,19.73
2019-04-27T04:34:40.533Z,19.80
2019-04-27T04:37:09.676Z,23.47
2019-04-27T04:39:40.283Z,25.80
2019-04-27T04:42:30.160Z,20.70
2019-04-27T04:45:17.201Z,23.53
2019-04-27T04:48:01.289Z,41.70
2019-04-27T04:50:30.565Z,30.07
2019-04-27T04:53:00.040Z,26.23
2019-04-27T04:55:30.627Z,26.00
2019-04-27T04:57:59.716Z,25.83
2019-04-27T05:00:29.988Z,25.13
2019-04-27T05:02:59.609Z,23.57
2019-04-27T05:05:29.326Z,30.80
2019-04-27T05:08:00.535Z,23.23
2019-04-27T05:10:31.180Z,28.60
2019-04-27T05:12:59.908Z,39.47
2019-04-27T05:15:29.348Z,26.43
2019-04-27T05:17:59.180Z,22.97
2019-04-27T05:21:02.762Z,23.23
2019-04-27T05:23:31.733Z,29.57
2019-04-27T05:26:00.622Z,23.17
2019-04-27T05:28:29.949Z,23.70
2019-04-27T05:31:00.533Z,21.07
2019-04-27T05:33:29.648Z,22.13
2019-04-27T05:35:59.124Z,24.90
2019-04-27T05:38:29.477Z,22.00
2019-04-27T05:40:58.794Z,25.27
2019-04-27T05:43:34.307Z,20.80
2019-04-27T05:46:40.424Z,17.67
2019-04-27T05:49:14.175Z,28.10
2019-04-27T05:51:43.075Z,20.47
2019-04-27T05:54:12.258Z,19.37
2019-04-27T05:56:41.312Z,20.43
2019-04-27T05:59:10.247Z,18.33
2019-04-27T06:01:39.233Z,17.63
2019-04-27T06:04:08.994Z,18.07
2019-04-27T06:06:39.916Z,17.80
2019-04-27T06:09:09.723Z,19.77
2019-04-27T06:11:40.026Z,21.43
2019-04-27T06:14:09.819Z,19.70
2019-04-27T06:16:39.450Z,26.87
2019-04-27T06:19:09.635Z,17.57
2019-04-27T06:21:40.069Z,17.77
2019-04-27T06:24:09.286Z,18.13
2019-04-27T06:26:39.932Z,20.20
2019-04-27T06:29:09.449Z,18.10
2019-04-27T06:31:39.667Z,16.50
2019-04-27T06:34:09.830Z,16.03
2019-04-27T06:36:40.172Z,27.17
2019-04-27T06:39:09.901Z,19.30
2019-04-27T06:41:40.083Z,14.67
2019-04-27T06:44:11.306Z,15.93
2019-04-27T06:46:40.493Z,15.03
2019-04-27T06:49:11.014Z,14.73
2019-04-27T06:51:40.377Z,12.40
2019-04-27T06:54:09.450Z,13.20
2019-04-27T06:56:38.969Z,12.37
2019-04-27T06:59:08.780Z,12.67
2019-04-27T07:01:39.133Z,13.17
2019-04-27T07:04:11.058Z,9.43
2019-04-27T07:06:52.820Z,10.13
2019-04-27T07:09:11.998Z,10.90
2019-04-27T07:11:41.176Z,11.50
2019-04-27T07:14:11.699Z,8.50
2019-04-27T07:16:40.911Z,9.80
2019-04-27T07:19:09.915Z,8.73
2019-04-27T07:21:39.984Z,15.83
2019-04-27T07:24:09.239Z,9.43
2019-04-27T07:26:39.144Z,9.83
2019-04-27T07:29:09.570Z,8.10
2019-04-27T07:31:40.139Z,9.57
2019-04-27T07:34:09.546Z,7.00
2019-04-27T07:36:39.340Z,6.93
2019-04-27T07:39:11.364Z,8.93
2019-04-27T07:41:40.114Z,13.40
2019-04-27T07:44:14.592Z,7.40
2019-04-27T07:46:43.575Z,10.03
2019-04-27T07:49:12.512Z,8.80
2019-04-27T07:51:41.507Z,10.47
2019-04-27T07:54:10.477Z,6.63
2019-04-27T07:56:39.410Z,7.10
2019-04-27T07:59:09.121Z,9.70
2019-04-27T08:01:39.314Z,4.77
2019-04-27T08:04:09.085Z,5.30
2019-04-27T08:06:38.783Z,5.73
2019-04-27T08:09:09.389Z,5.80
2019-04-27T08:11:39.077Z,6.23
2019-04-27T08:14:08.759Z,8.57
2019-04-27T08:16:38.818Z,8.07
2019-04-27T08:19:09.854Z,6.33
2019-04-27T08:21:44.503Z,7.00
2019-04-27T08:24:11.097Z,9.00
2019-04-27T08:26:46.559Z,7.00
2019-04-27T08:29:32.998Z,7.27
2019-04-27T08:32:09.595Z,6.33
2019-04-27T08:34:39.740Z,4.13
2019-04-27T08:37:09.268Z,9.57
2019-04-27T08:39:39.653Z,6.37
2019-04-27T08:42:09.558Z,8.53
2019-04-27T08:44:39.777Z,5.33
2019-04-27T08:47:09.594Z,4.87
2019-04-27T08:49:39.424Z,5.40
2019-04-27T08:52:09.389Z,5.53
2019-04-27T08:54:39.448Z,5.27
2019-04-27T08:57:09.748Z,5.43
2019-04-27T08:59:39.418Z,5.87
2019-04-27T09:02:08.836Z,7.53
2019-04-27T09:04:39.511Z,5.90
2019-04-27T09:07:45.784Z,7.17
2019-04-27T09:10:21.789Z,4.00
2019-04-27T09:12:58.878Z,6.87
2019-04-27T09:15:47.066Z,4.57
2019-04-27T09:18:19.290Z,4.77
2019-04-27T09:20:51.847Z,3.90
2019-04-27T09:23:20.834Z,7.33
2019-04-27T09:25:49.948Z,7.33
2019-04-27T09:28:20.292Z,6.63
2019-04-27T09:30:49.948Z,5.33
2019-04-27T09:33:22.287Z,4.37
2019-04-27T09:35:51.312Z,4.50
2019-04-27T09:38:20.423Z,4.73
2019-04-27T09:40:49.634Z,7.97
2019-04-27T09:43:18.534Z,9.10
2019-04-27T09:45:47.460Z,4.27
2019-04-27T09:48:17.637Z,6.03
2019-04-27T09:50:46.792Z,5.37
2019-04-27T09:53:15.893Z,4.77
2019-04-27T09:55:46.777Z,5.43
2019-04-27T09:58:18.229Z,6.50
2019-04-27T10:00:48.522Z,9.67
2019-04-27T10:03:18.028Z,5.27
2019-04-27T10:05:46.933Z,4.77
2019-04-27T10:08:16.950Z,7.13
2019-04-27T10:10:47.909Z,7.33
2019-04-27T10:13:16.962Z,18.37
2019-04-27T10:15:46.247Z,5.67
2019-04-27T10:18:16.313Z,6.03
2019-04-27T10:20:56.949Z,7.87
2019-04-27T10:23:16.255Z,6.47
2019-04-27T10:25:45.796Z,6.13
2019-04-27T10:28:14.943Z,8.30
2019-04-27T10:30:45.680Z,10.57
2019-04-27T10:33:16.133Z,10.87
2019-04-27T10:35:47.231Z,11.90
2019-04-27T10:38:17.234Z,8.27
2019-04-27T10:40:46.649Z,13.47
2019-04-27T10:43:15.772Z,6.03
2019-04-27T10:45:46.255Z,6.60
2019-04-27T10:48:16.363Z,5.33
2019-04-27T10:50:46.759Z,7.50
2019-04-27T10:53:16.891Z,6.57
2019-04-27T10:55:46.435Z,8.77
2019-04-27T10:58:15.616Z,8.63
2019-04-27T11:00:49.642Z,8.13
2019-04-27T11:03:23.131Z,6.33
2019-04-27T11:06:15.917Z,8.63
2019-04-27T11:08:46.506Z,15.67
2019-04-27T11:11:16.063Z,6.57
2019-04-27T11:13:46.354Z,8.90
2019-04-27T11:16:15.567Z,8.93
2019-04-27T11:18:44.620Z,12.13
2019-04-27T11:21:13.691Z,10.17
2019-04-27T11:23:42.663Z,7.43
2019-04-27T11:26:11.797Z,7.30
2019-04-27T11:28:42.741Z,7.67
2019-04-27T11:31:21.623Z,7.07
2019-04-27T11:33:56.670Z,10.17
2019-04-27T11:36:43.318Z,11.00
2019-04-27T11:39:16.277Z,11.03
2019-04-27T11:41:45.724Z,8.23
2019-04-27T11:44:15.293Z,19.07
2019-04-27T11:46:47.471Z,11.60
2019-04-27T11:49:17.447Z,10.73
2019-04-27T11:51:46.700Z,12.23
2019-04-27T11:54:15.895Z,10.73
2019-04-27T11:56:47.234Z,7.97
2019-04-27T11:59:16.351Z,7.40
2019-04-27T12:01:45.964Z,8.47
2019-04-27T12:04:16.103Z,6.87
2019-04-27T12:06:46.246Z,6.03
2019-04-27T12:09:15.474Z,8.03
2019-04-27T12:11:44.778Z,5.70
2019-04-27T12:14:13.855Z,5.70
2019-04-27T12:16:42.827Z,4.47
2019-04-27T12:19:11.841Z,4.80
2019-04-27T12:21:41.023Z,5.03
2019-04-27T12:24:10.067Z,7.17
2019-04-27T12:26:48.447Z,8.17
2019-04-27T12:29:23.947Z,6.13
2019-04-27T12:31:56.280Z,7.20
2019-04-27T12:34:27.782Z,4.77
2019-04-27T12:36:58.033Z,5.03
2019-04-27T12:39:27.000Z,5.70
2019-04-27T12:41:56.065Z,5.23
2019-04-27T12:44:26.109Z,6.17
2019-04-27T12:46:57.487Z,6.17
2019-04-27T12:49:26.218Z,6.33
2019-04-27T12:51:55.813Z,8.00
2019-04-27T12:54:33.945Z,5.83
2019-04-27T12:57:20.699Z,7.33
2019-04-27T13:00:00.884Z,5.83
2019-04-27T13:02:32.274Z,4.50
2019-04-27T13:05:01.496Z,3.70
2019-04-27T13:07:32.412Z,5.97
2019-04-27T13:10:01.408Z,3.07
2019-04-27T13:12:30.694Z,4.63
2019-04-27T13:14:59.808Z,5.23
2019-04-27T13:17:32.193Z,4.77
2019-04-27T13:20:01.255Z,5.37
2019-04-27T13:22:30.261Z,6.70
2019-04-27T13:24:59.443Z,6.30
2019-04-27T13:27:31.461Z,4.03
2019-04-27T13:30:00.495Z,7.90
2019-04-27T13:32:29.592Z,4.47
2019-04-27T13:34:58.748Z,4.50
2019-04-27T13:37:38.245Z,5.57
2019-04-27T13:40:10.038Z,3.67
2019-04-27T13:43:03.201Z,4.00
2019-04-27T13:45:46.822Z,3.90
2019-04-27T13:48:36.434Z,4.57
2019-04-27T13:51:08.021Z,4.80
2019-04-27T13:53:37.227Z,10.07
2019-04-27T13:56:14.836Z,5.23
2019-04-27T13:58:44.611Z,5.20
2019-04-27T14:01:13.644Z,5.10
2019-04-27T14:03:42.765Z,6.27
2019-04-27T14:06:11.896Z,4.90
2019-04-27T14:08:41.242Z,6.97
2019-04-27T14:11:10.315Z,6.47
2019-04-27T14:13:39.328Z,3.93
2019-04-27T14:16:10.251Z,5.50
2019-04-27T14:18:39.303Z,7.73
2019-04-27T14:21:09.449Z,8.10
2019-04-27T14:23:38.721Z,8.23
2019-04-27T14:26:08.766Z,7.17
2019-04-27T14:28:38.023Z,2.50
2019-04-27T14:31:08.990Z,4.20
2019-04-27T14:33:39.731Z,1.73
2019-04-27T14:36:08.997Z,2.03
2019-04-27T14:38:38.255Z,2.47
2019-04-27T14:41:09.039Z,4.30
2019-04-27T14:43:38.221Z,2.50
2019-04-27T14:46:11.122Z,7.03
2019-04-27T14:48:40.269Z,2.00
2019-04-27T14:51:09.456Z,2.97
2019-04-27T14:53:38.678Z,5.47
2019-04-27T14:56:08.822Z,2.57
2019-04-27T14:58:37.969Z,7.70
2019-04-27T15:01:08.253Z,7.47
2019-04-27T15:03:37.471Z,2.50
2019-04-27T15:06:06.412Z,2.73
2019-04-27T15:08:38.416Z,5.47
2019-04-27T15:11:10.510Z,9.53
2019-04-27T15:13:37.768Z,2.00
2019-04-27T15:16:08.486Z,6.00
2019-04-27T15:18:43.625Z,3.30
2019-04-27T15:21:12.633Z,3.27
2019-04-27T15:23:41.727Z,5.37
2019-04-27T15:26:10.846Z,1.33
2019-04-27T15:28:44.799Z,3.30
2019-04-27T15:31:26.866Z,26.87
2019-04-27T15:34:07.449Z,7.03
2019-04-27T15:36:44.293Z,8.07
2019-04-27T15:39:22.470Z,10.43
2019-04-27T15:41:55.077Z,8.23
2019-04-27T15:44:25.047Z,41.63
2019-04-27T15:46:54.199Z,14.77
2019-04-27T15:49:23.327Z,8.80
2019-04-27T15:51:54.729Z,4.20
2019-04-27T15:54:29.049Z,14.60
2019-04-27T15:56:55.641Z,3.50
2019-04-27T15:59:30.991Z,3.00
2019-04-27T16:01:58.723Z,7.00
2019-04-27T16:04:27.749Z,14.70
2019-04-27T16:06:58.268Z,27.20
2019-04-27T16:09:28.398Z,10.70
2019-04-27T16:12:06.758Z,2.93
2019-04-27T16:14:28.939Z,3.80
2019-04-27T16:16:58.888Z,6.87
2019-04-27T16:19:28.735Z,5.40
2019-04-27T16:21:59.104Z,3.43
2019-04-27T16:24:29.069Z,4.97
2019-04-27T16:26:59.099Z,6.20
2019-04-27T16:29:31.499Z,3.70
2019-04-27T16:32:02.784Z,7.20
2019-04-27T16:34:33.062Z,5.80
2019-04-27T16:37:00.773Z,5.17
2019-04-27T16:39:29.824Z,8.80
2019-04-27T16:41:58.884Z,3.20
2019-04-27T16:44:27.917Z,5.70
2019-04-27T16:46:58.264Z,6.03
2019-04-27T16:49:29.000Z,3.10
2019-04-27T16:51:59.056Z,4.83
2019-04-27T16:54:28.320Z,6.00
2019-04-27T16:57:03.205Z,1.90
2019-04-27T16:59:40.853Z,4.17
2019-04-27T17:01:58.832Z,3.83
2019-04-27T17:04:29.058Z,4.50
2019-04-27T17:06:59.028Z,3.27
2019-04-27T17:09:29.170Z,6.37
2019-04-27T17:11:59.268Z,6.63
2019-04-27T17:14:40.352Z,5.30
2019-04-27T17:17:20.119Z,6.67
2019-04-27T17:19:52.565Z,4.27
2019-04-27T17:22:21.611Z,7.80
2019-04-27T17:24:50.722Z,7.43
2019-04-27T17:27:28.901Z,6.40
2019-04-27T17:29:59.488Z,7.17
2019-04-27T17:32:33.866Z,2.93
2019-04-27T17:35:05.304Z,3.77
2019-04-27T17:37:33.967Z,4.90
2019-04-27T17:40:03.075Z,35.67
2019-04-27T17:42:32.004Z,23.03
2019-04-27T17:45:01.009Z,5.17
2019-04-27T17:47:30.116Z,4.93
2019-04-27T17:49:59.138Z,2.10
2019-04-27T17:52:28.203Z,4.60
2019-04-27T17:54:58.996Z,2.30
2019-04-27T17:57:33.799Z,2.00
2019-04-27T18:00:03.550Z,3.80
2019-04-27T18:02:33.962Z,3.13
2019-04-27T18:05:03.987Z,2.70
2019-04-27T18:07:34.900Z,3.77
2019-04-27T18:10:03.878Z,2.50
2019-04-27T18:12:32.897Z,2.37
2019-04-27T18:15:01.888Z,3.03
2019-04-27T18:17:31.995Z,5.63
2019-04-27T18:20:03.470Z,5.93
2019-04-27T18:22:38.011Z,4.80
2019-04-27T18:25:09.815Z,5.53
2019-04-27T18:27:55.271Z,3.73
2019-04-27T18:30:43.507Z,6.47
2019-04-27T18:33:12.604Z,4.77
2019-04-27T18:35:41.576Z,5.23
2019-04-27T18:38:10.873Z,6.87
2019-04-27T18:40:40.153Z,3.83
2019-04-27T18:43:12.263Z,3.67
2019-04-27T18:45:44.950Z,9.43
2019-04-27T18:48:18.629Z,8.83
2019-04-27T18:51:15.751Z,7.30
2019-04-27T18:53:44.767Z,7.03
2019-04-27T18:56:13.715Z,5.50
2019-04-27T18:58:42.756Z,5.03
2019-04-27T19:01:11.906Z,61.40
2019-04-27T19:03:40.879Z,7.77
2019-04-27T19:06:09.915Z,12.33
2019-04-27T19:08:38.969Z,14.23
2019-04-27T19:11:09.269Z,13.77
2019-04-27T19:13:40.074Z,18.23
2019-04-27T19:16:09.372Z,2.73
2019-04-27T19:18:39.925Z,3.53
2019-04-27T19:21:09.055Z,6.83
2019-04-27T19:23:38.186Z,6.37
2019-04-27T19:26:15.382Z,2.63
2019-04-27T19:28:53.499Z,2.67
2019-04-27T19:31:26.723Z,3.00
2019-04-27T19:33:55.866Z,2.47
2019-04-27T19:36:24.819Z,3.10
2019-04-27T19:38:53.819Z,2.50
2019-04-27T19:41:22.851Z,5.43
2019-04-27T19:43:51.851Z,3.13
2019-04-27T19:46:20.740Z,6.33
2019-04-27T19:48:50.010Z,4.70
2019-04-27T19:51:19.047Z,5.23
2019-04-27T19:53:48.101Z,1.80
2019-04-27T19:56:19.330Z,3.43
2019-04-27T19:58:52.148Z,7.03
2019-04-27T20:01:42.764Z,2.03
2019-04-27T20:04:25.639Z,2.73
2019-04-27T20:06:54.635Z,1.83
2019-04-27T20:09:28.823Z,4.93
2019-04-27T20:11:57.951Z,5.13
2019-04-27T20:14:26.916Z,7.50
2019-04-27T20:16:55.867Z,7.57
2019-04-27T20:19:24.911Z,3.70
2019-04-27T20:21:53.783Z,4.90
2019-04-27T20:24:22.893Z,4.70
2019-04-27T20:26:51.850Z,4.97
2019-04-27T20:29:21.780Z,4.77
2019-04-27T20:31:51.280Z,4.97
2019-04-27T20:34:21.172Z,3.43
2019-04-27T20:36:52.849Z,7.97
2019-04-27T20:39:22.052Z,2.67
2019-04-27T20:41:51.265Z,3.10
2019-04-27T20:44:21.091Z,4.73
2019-04-27T20:46:51.328Z,3.60
2019-04-27T20:49:21.202Z,5.03
2019-04-27T20:52:12.382Z,3.27
2019-04-27T20:54:41.675Z,5.23
2019-04-27T20:57:11.506Z,4.97
2019-04-27T20:59:42.412Z,3.97
2019-04-27T21:02:48.697Z,3.87
2019-04-27T21:05:35.416Z,7.20
2019-04-27T21:08:06.947Z,6.30
2019-04-27T21:10:36.313Z,3.83
2019-04-27T21:13:05.584Z,6.97
2019-04-27T21:15:34.696Z,5.93
2019-04-27T21:18:03.741Z,4.67
2019-04-27T21:20:33.163Z,4.43
2019-04-27T21:23:02.127Z,13.20
2019-04-27T21:25:33.581Z,7.77
2019-04-27T21:28:15.504Z,4.37
2019-04-27T21:30:34.056Z,4.30
2019-04-27T21:33:03.409Z,5.43
2019-04-27T21:35:32.729Z,3.93
2019-04-27T21:38:04.494Z,4.47
2019-04-27T21:40:32.435Z,4.80
2019-04-27T21:43:01.447Z,7.83
2019-04-27T21:45:31.757Z,9.63
2019-04-27T21:48:00.944Z,3.17
2019-04-27T21:50:31.504Z,3.60
2019-04-27T21:53:23.839Z,15.13
2019-04-27T21:56:07.292Z,5.33
2019-04-27T21:58:36.215Z,6.83
2019-04-27T22:01:13.205Z,6.17
2019-04-27T22:03:42.643Z,9.23
2019-04-27T22:06:11.899Z,11.13
2019-04-27T22:08:41.086Z,7.30
2019-04-27T22:11:11.761Z,8.20
2019-04-27T22:13:41.071Z,3.70
2019-04-27T22:16:12.735Z,6.47
2019-04-27T22:18:41.834Z,5.23
2019-04-27T22:21:11.542Z,6.73
2019-04-27T22:23:50.835Z,7.20
2019-04-27T22:26:21.371Z,5.67
2019-04-27T22:28:52.059Z,5.73
2019-04-27T22:31:23.361Z,6.77
2019-04-27T22:33:54.562Z,4.17
2019-04-27T22:36:23.290Z,8.43
2019-04-27T22:38:53.343Z,10.27
2019-04-27T22:41:38.894Z,4.90
2019-04-27T22:44:24.366Z,6.87
2019-04-27T22:46:53.668Z,11.33
2019-04-27T22:49:22.935Z,8.43
2019-04-27T22:51:51.896Z,4.80
2019-04-27T22:54:21.772Z,4.77
2019-04-27T22:56:52.453Z,6.13
2019-04-27T22:59:31.670Z,9.80
2019-04-27T23:02:25.899Z,6.13
2019-04-27T23:05:02.787Z,4.93
2019-04-27T23:07:31.874Z,10.73
2019-04-27T23:10:01.578Z,8.83
2019-04-27T23:12:32.727Z,5.27
2019-04-27T23:15:02.133Z,9.63
2019-04-27T23:17:59.625Z,5.63
2019-04-27T23:20:28.652Z,4.27
2019-04-27T23:22:57.636Z,4.47
2019-04-27T23:25:26.595Z,6.60
2019-04-27T23:27:55.592Z,5.47
2019-04-27T23:30:32.684Z,4.53
2019-04-27T23:33:01.571Z,10.73
2019-04-27T23:35:32.784Z,10.67
2019-04-27T23:38:14.471Z,7.97
2019-04-27T23:40:33.900Z,8.00
2019-04-27T23:43:02.847Z,9.83
2019-04-27T23:45:31.947Z,8.33
2019-04-27T23:48:00.940Z,4.97
2019-04-27T23:50:31.725Z,7.27
2019-04-27T23:53:09.199Z,10.73
2019-04-27T23:55:38.768Z,7.77
2019-04-27T23:58:07.822Z,9.67
